sensor_id;sensor_type;location;lat;lon;timestamp;pressure;altitude;pressure_sealevel;temperature;humidity
62510;BME280;48558;48.242;11.654;2022-10-16T00:03:06;96284.78;;;12.16;100.00
62510;BME280;48558;48.242;11.654;2022-10-16T00:07:18;96279.63;;;12.09;100.00
62510;BME280;48558;48.242;11.654;2022-10-16T00:11:41;96285.31;;;12.05;100.00
62510;BME280;48558;48.242;11.654;2022-10-16T00:15:56;96290.63;;;11.94;100.00
62510;BME280;48558;48.242;11.654;2022-10-16T00:20:08;96285.28;;;11.91;100.00
62510;BME280;48558;48.242;11.654;2022-10-16T00:24:21;96280.03;;;11.93;100.00
62510;BME280;48558;48.242;11.654;2022-10-16T00:28:33;96280.63;;;11.97;100.00
62510;BME280;48558;48.242;11.654;2022-10-16T00:32:46;96276.03;;;11.94;100.00
62510;BME280;48558;48.242;11.654;2022-10-16T00:36:58;96278.81;;;11.94;100.00
62510;BME280;48558;48.242;11.654;2022-10-16T00:41:18;96270.50;;;11.94;100.00
62510;BME280;48558;48.242;11.654;2022-10-16T00:45:30;96276.34;;;11.96;100.00
62510;BME280;48558;48.242;11.654;2022-10-16T00:49:43;96275.66;;;12.01;100.00
62510;BME280;48558;48.242;11.654;2022-10-16T00:53:56;96275.44;;;12.13;100.00
62510;BME280;48558;48.242;11.654;2022-10-16T00:58:09;96283.38;;;12.20;100.00
62510;BME280;48558;48.242;11.654;2022-10-16T01:02:21;96296.34;;;12.14;100.00
62510;BME280;48558;48.242;11.654;2022-10-16T01:11:36;96297.09;;;12.15;100.00
62510;BME280;48558;48.242;11.654;2022-10-16T01:16:13;96302.84;;;12.11;100.00
62510;BME280;48558;48.242;11.654;2022-10-16T01:20:34;96309.66;;;12.01;100.00
62510;BME280;48558;48.242;11.654;2022-10-16T01:24:49;96319.38;;;11.97;100.00
62510;BME280;48558;48.242;11.654;2022-10-16T01:29:22;96311.13;;;11.88;100.00
62510;BME280;48558;48.242;11.654;2022-10-16T01:33:42;96305.34;;;11.77;100.00
62510;BME280;48558;48.242;11.654;2022-10-16T01:42:13;96301.06;;;11.76;100.00
62510;BME280;48558;48.242;11.654;2022-10-16T01:46:28;96293.75;;;11.87;100.00
62510;BME280;48558;48.242;11.654;2022-10-16T01:50:44;96290.34;;;11.92;100.00
62510;BME280;48558;48.242;11.654;2022-10-16T01:55:02;96301.34;;;12.01;100.00
62510;BME280;48558;48.242;11.654;2022-10-16T01:59:18;96299.66;;;12.04;100.00
62510;BME280;48558;48.242;11.654;2022-10-16T02:03:33;96297.81;;;12.01;100.00
62510;BME280;48558;48.242;11.654;2022-10-16T02:07:47;96290.28;;;12.01;100.00
62510;BME280;48558;48.242;11.654;2022-10-16T02:12:15;96288.81;;;11.91;100.00
62510;BME280;48558;48.242;11.654;2022-10-16T02:16:48;96284.56;;;11.81;100.00
62510;BME280;48558;48.242;11.654;2022-10-16T02:21:24;96287.69;;;11.74;100.00
62510;BME280;48558;48.242;11.654;2022-10-16T02:25:40;96290.03;;;11.67;100.00
62510;BME280;48558;48.242;11.654;2022-10-16T02:30:00;96290.81;;;11.58;100.00
62510;BME280;48558;48.242;11.654;2022-10-16T02:34:14;96297.41;;;11.61;100.00
62510;BME280;48558;48.242;11.654;2022-10-16T02:38:29;96310.41;;;11.45;100.00
62510;BME280;48558;48.242;11.654;2022-10-16T02:42:42;96308.56;;;11.42;100.00
62510;BME280;48558;48.242;11.654;2022-10-16T02:46:55;96317.66;;;11.43;100.00
62510;BME280;48558;48.242;11.654;2022-10-16T02:51:07;96318.13;;;11.41;100.00
62510;BME280;48558;48.242;11.654;2022-10-16T02:55:19;96308.88;;;11.44;100.00
62510;BME280;48558;48.242;11.654;2022-10-16T02:59:32;96310.91;;;11.44;100.00
62510;BME280;48558;48.242;11.654;2022-10-16T03:03:44;96316.28;;;11.38;100.00
62510;BME280;48558;48.242;11.654;2022-10-16T03:07:56;96305.09;;;11.33;100.00
62510;BME280;48558;48.242;11.654;2022-10-16T03:12:12;96318.19;;;11.23;100.00
62510;BME280;48558;48.242;11.654;2022-10-16T03:16:24;96311.00;;;11.17;100.00
62510;BME280;48558;48.242;11.654;2022-10-16T03:20:36;96301.19;;;11.07;100.00
62510;BME280;48558;48.242;11.654;2022-10-16T03:24:49;96301.06;;;11.01;100.00
62510;BME280;48558;48.242;11.654;2022-10-16T03:29:02;96315.94;;;11.04;100.00
62510;BME280;48558;48.242;11.654;2022-10-16T03:33:15;96321.31;;;11.07;100.00
62510;BME280;48558;48.242;11.654;2022-10-16T03:37:27;96330.38;;;11.17;100.00
62510;BME280;48558;48.242;11.654;2022-10-16T03:41:40;96315.25;;;11.27;100.00
62510;BME280;48558;48.242;11.654;2022-10-16T03:45:52;96320.75;;;11.36;100.00
62510;BME280;48558;48.242;11.654;2022-10-16T03:50:05;96329.31;;;11.47;100.00
62510;BME280;48558;48.242;11.654;2022-10-16T03:54:17;96325.44;;;11.53;100.00
62510;BME280;48558;48.242;11.654;2022-10-16T03:58:30;96330.03;;;11.57;100.00
62510;BME280;48558;48.242;11.654;2022-10-16T04:02:42;96331.22;;;11.65;100.00
62510;BME280;48558;48.242;11.654;2022-10-16T04:06:59;96338.28;;;11.75;100.00
62510;BME280;48558;48.242;11.654;2022-10-16T04:11:12;96346.25;;;11.82;100.00
62510;BME280;48558;48.242;11.654;2022-10-16T04:15:25;96342.84;;;11.87;100.00
62510;BME280;48558;48.242;11.654;2022-10-16T04:19:37;96333.41;;;11.93;100.00
62510;BME280;48558;48.242;11.654;2022-10-16T04:23:50;96330.94;;;11.95;100.00
62510;BME280;48558;48.242;11.654;2022-10-16T04:28:02;96328.94;;;11.96;100.00
62510;BME280;48558;48.242;11.654;2022-10-16T04:32:14;96314.13;;;11.99;100.00
62510;BME280;48558;48.242;11.654;2022-10-16T04:36:27;96325.16;;;12.08;100.00
62510;BME280;48558;48.242;11.654;2022-10-16T04:40:42;96326.81;;;12.14;100.00
62510;BME280;48558;48.242;11.654;2022-10-16T04:44:54;96330.19;;;12.18;100.00
62510;BME280;48558;48.242;11.654;2022-10-16T04:49:06;96334.41;;;12.29;100.00
62510;BME280;48558;48.242;11.654;2022-10-16T04:53:19;96337.94;;;12.29;100.00
62510;BME280;48558;48.242;11.654;2022-10-16T04:57:31;96347.69;;;12.24;100.00
62510;BME280;48558;48.242;11.654;2022-10-16T05:01:45;96348.16;;;12.23;100.00
62510;BME280;48558;48.242;11.654;2022-10-16T05:05:57;96323.28;;;12.14;100.00
62510;BME280;48558;48.242;11.654;2022-10-16T05:10:10;96330.47;;;12.20;100.00
62510;BME280;48558;48.242;11.654;2022-10-16T05:14:22;96329.22;;;12.21;100.00
62510;BME280;48558;48.242;11.654;2022-10-16T05:18:35;96337.81;;;12.23;100.00
62510;BME280;48558;48.242;11.654;2022-10-16T05:22:47;96329.06;;;12.25;100.00
62510;BME280;48558;48.242;11.654;2022-10-16T05:27:00;96323.44;;;12.34;100.00
62510;BME280;48558;48.242;11.654;2022-10-16T05:31:12;96329.09;;;12.40;100.00
62510;BME280;48558;48.242;11.654;2022-10-16T05:35:25;96337.31;;;12.34;100.00
62510;BME280;48558;48.242;11.654;2022-10-16T05:39:38;96345.59;;;12.34;100.00
62510;BME280;48558;48.242;11.654;2022-10-16T05:43:50;96362.94;;;12.44;100.00
62510;BME280;48558;48.242;11.654;2022-10-16T05:48:03;96361.41;;;12.43;100.00
62510;BME280;48558;48.242;11.654;2022-10-16T05:52:15;96368.66;;;12.40;100.00
62510;BME280;48558;48.242;11.654;2022-10-16T05:56:27;96363.41;;;12.42;100.00
62510;BME280;48558;48.242;11.654;2022-10-16T06:00:40;96367.72;;;12.43;100.00
62510;BME280;48558;48.242;11.654;2022-10-16T06:04:52;96367.59;;;12.38;100.00
62510;BME280;48558;48.242;11.654;2022-10-16T06:09:09;96355.06;;;12.28;100.00
62510;BME280;48558;48.242;11.654;2022-10-16T06:13:21;96359.09;;;12.17;100.00
62510;BME280;48558;48.242;11.654;2022-10-16T06:17:34;96374.09;;;12.11;100.00
62510;BME280;48558;48.242;11.654;2022-10-16T06:21:46;96383.03;;;12.06;100.00
62510;BME280;48558;48.242;11.654;2022-10-16T06:26:11;96383.06;;;11.97;100.00
62510;BME280;48558;48.242;11.654;2022-10-16T06:30:23;96398.22;;;11.87;100.00
62510;BME280;48558;48.242;11.654;2022-10-16T06:34:36;96392.69;;;11.87;100.00
62510;BME280;48558;48.242;11.654;2022-10-16T06:38:54;96405.13;;;11.91;100.00
62510;BME280;48558;48.242;11.654;2022-10-16T06:43:06;96399.41;;;11.95;100.00
62510;BME280;48558;48.242;11.654;2022-10-16T06:47:18;96416.16;;;12.00;100.00
62510;BME280;48558;48.242;11.654;2022-10-16T06:51:31;96420.75;;;12.03;100.00
62510;BME280;48558;48.242;11.654;2022-10-16T06:55:50;96422.88;;;12.08;100.00
62510;BME280;48558;48.242;11.654;2022-10-16T07:00:03;96428.25;;;12.12;100.00
62510;BME280;48558;48.242;11.654;2022-10-16T07:04:16;96435.31;;;12.13;100.00
62510;BME280;48558;48.242;11.654;2022-10-16T07:08:31;96443.63;;;12.13;100.00
62510;BME280;48558;48.242;11.654;2022-10-16T07:12:44;96445.75;;;12.18;100.00
62510;BME280;48558;48.242;11.654;2022-10-16T07:16:57;96452.47;;;12.26;100.00
62510;BME280;48558;48.242;11.654;2022-10-16T07:21:14;96460.00;;;12.35;100.00
62510;BME280;48558;48.242;11.654;2022-10-16T07:25:27;96458.88;;;12.41;100.00
62510;BME280;48558;48.242;11.654;2022-10-16T07:29:39;96459.13;;;12.52;100.00
62510;BME280;48558;48.242;11.654;2022-10-16T07:33:52;96463.50;;;12.82;100.00
62510;BME280;48558;48.242;11.654;2022-10-16T07:38:05;96472.91;;;13.23;100.00
62510;BME280;48558;48.242;11.654;2022-10-16T07:42:17;96464.16;;;13.54;100.00
62510;BME280;48558;48.242;11.654;2022-10-16T07:46:30;96473.16;;;13.63;100.00
62510;BME280;48558;48.242;11.654;2022-10-16T07:50:44;96489.13;;;13.68;100.00
62510;BME280;48558;48.242;11.654;2022-10-16T07:54:56;96487.50;;;13.91;100.00
62510;BME280;48558;48.242;11.654;2022-10-16T07:59:09;96482.00;;;14.26;100.00
62510;BME280;48558;48.242;11.654;2022-10-16T08:03:21;96486.16;;;14.65;100.00
62510;BME280;48558;48.242;11.654;2022-10-16T08:07:33;96492.28;;;14.89;100.00
62510;BME280;48558;48.242;11.654;2022-10-16T08:11:46;96492.97;;;15.04;100.00
62510;BME280;48558;48.242;11.654;2022-10-16T08:15:58;96492.47;;;15.26;100.00
62510;BME280;48558;48.242;11.654;2022-10-16T08:20:11;96501.06;;;15.68;100.00
62510;BME280;48558;48.242;11.654;2022-10-16T08:24:23;96496.97;;;15.90;100.00
62510;BME280;48558;48.242;11.654;2022-10-16T08:28:36;96501.25;;;16.16;100.00
62510;BME280;48558;48.242;11.654;2022-10-16T08:32:49;96504.50;;;16.46;100.00
62510;BME280;48558;48.242;11.654;2022-10-16T08:37:01;96515.63;;;16.77;100.00
62510;BME280;48558;48.242;11.654;2022-10-16T08:49:59;96521.09;;;17.56;100.00
62510;BME280;48558;48.242;11.654;2022-10-16T08:54:36;96522.69;;;17.90;100.00
62510;BME280;48558;48.242;11.654;2022-10-16T08:58:53;96528.06;;;18.11;100.00
62510;BME280;48558;48.242;11.654;2022-10-16T09:12:27;96538.44;;;19.73;100.00
62510;BME280;48558;48.242;11.654;2022-10-16T09:16:58;96524.72;;;20.10;100.00
62510;BME280;48558;48.242;11.654;2022-10-16T09:21:30;96526.06;;;20.63;100.00
62510;BME280;48558;48.242;11.654;2022-10-16T09:25:45;96534.81;;;20.84;100.00
62510;BME280;48558;48.242;11.654;2022-10-16T09:29:59;96532.72;;;21.38;100.00
62510;BME280;48558;48.242;11.654;2022-10-16T09:34:32;96543.41;;;21.64;100.00
62510;BME280;48558;48.242;11.654;2022-10-16T09:38:46;96526.31;;;22.18;94.61
62510;BME280;48558;48.242;11.654;2022-10-16T09:47:55;96536.81;;;22.80;82.44
62510;BME280;48558;48.242;11.654;2022-10-16T09:52:13;96553.03;;;23.32;80.70
62510;BME280;48558;48.242;11.654;2022-10-16T09:56:31;96558.25;;;23.54;74.88
62510;BME280;48558;48.242;11.654;2022-10-16T10:00:49;96565.81;;;23.99;70.39
62510;BME280;48558;48.242;11.654;2022-10-16T10:05:04;96568.50;;;24.04;68.01
62510;BME280;48558;48.242;11.654;2022-10-16T10:09:36;96560.94;;;23.99;64.37
62510;BME280;48558;48.242;11.654;2022-10-16T10:13:50;96552.16;;;24.37;64.46
62510;BME280;48558;48.242;11.654;2022-10-16T10:18:02;96547.75;;;24.49;56.21
62510;BME280;48558;48.242;11.654;2022-10-16T10:22:24;96551.75;;;24.94;55.25
62510;BME280;48558;48.242;11.654;2022-10-16T10:26:38;96550.88;;;24.79;55.88
62510;BME280;48558;48.242;11.654;2022-10-16T10:31:11;96561.88;;;25.11;55.33
62510;BME280;48558;48.242;11.654;2022-10-16T10:35:32;96555.13;;;25.14;52.89
62510;BME280;48558;48.242;11.654;2022-10-16T10:39:56;96545.00;;;25.46;51.99
62510;BME280;48558;48.242;11.654;2022-10-16T10:48:53;96552.53;;;25.80;52.32
62510;BME280;48558;48.242;11.654;2022-10-16T10:58:14;96546.31;;;25.81;52.77
62510;BME280;48558;48.242;11.654;2022-10-16T11:02:41;96544.25;;;25.82;51.08
62510;BME280;48558;48.242;11.654;2022-10-16T11:07:11;96548.41;;;26.31;50.41
62510;BME280;48558;48.242;11.654;2022-10-16T11:11:41;96545.25;;;26.50;49.08
62510;BME280;48558;48.242;11.654;2022-10-16T11:16:02;96552.81;;;26.63;47.62
62510;BME280;48558;48.242;11.654;2022-10-16T11:20:59;96536.63;;;27.01;45.36
62510;BME280;48558;48.242;11.654;2022-10-16T11:29:30;96535.47;;;27.42;46.98
62510;BME280;48558;48.242;11.654;2022-10-16T11:38:45;96545.69;;;27.15;43.68
62510;BME280;48558;48.242;11.654;2022-10-16T11:43:10;96546.34;;;26.32;40.18
62510;BME280;48558;48.242;11.654;2022-10-16T11:47:27;96544.84;;;26.39;40.58
62510;BME280;48558;48.242;11.654;2022-10-16T11:56:29;96536.75;;;26.58;39.83
62510;BME280;48558;48.242;11.654;2022-10-16T12:01:00;96528.44;;;26.67;41.67
62510;BME280;48558;48.242;11.654;2022-10-16T12:09:38;96521.50;;;27.36;39.56
62510;BME280;48558;48.242;11.654;2022-10-16T12:13:51;96532.06;;;27.06;40.62
62510;BME280;48558;48.242;11.654;2022-10-16T12:18:03;96530.94;;;26.86;39.24
62510;BME280;48558;48.242;11.654;2022-10-16T12:22:18;96537.94;;;27.23;40.62
62510;BME280;48558;48.242;11.654;2022-10-16T12:26:38;96527.50;;;27.48;40.10
62510;BME280;48558;48.242;11.654;2022-10-16T12:31:05;96526.78;;;27.10;41.09
62510;BME280;48558;48.242;11.654;2022-10-16T12:35:24;96532.03;;;26.60;41.10
62510;BME280;48558;48.242;11.654;2022-10-16T12:39:37;96530.78;;;26.10;40.42
62510;BME280;48558;48.242;11.654;2022-10-16T12:43:51;96524.72;;;26.87;39.34
62510;BME280;48558;48.242;11.654;2022-10-16T12:48:18;96512.78;;;26.74;40.69
62510;BME280;48558;48.242;11.654;2022-10-16T12:52:41;96518.84;;;26.85;41.45
62510;BME280;48558;48.242;11.654;2022-10-16T13:28:37;96530.84;;;26.25;41.47
62510;BME280;48558;48.242;11.654;2022-10-16T13:32:58;96532.91;;;26.25;41.90
62510;BME280;48558;48.242;11.654;2022-10-16T13:37:21;96539.59;;;26.50;43.68
62510;BME280;48558;48.242;11.654;2022-10-16T13:41:34;96537.50;;;26.43;40.35
62510;BME280;48558;48.242;11.654;2022-10-16T13:45:58;96536.69;;;26.35;40.39
62510;BME280;48558;48.242;11.654;2022-10-16T13:50:15;96541.41;;;26.25;41.26
62510;BME280;48558;48.242;11.654;2022-10-16T13:54:28;96546.16;;;26.30;43.18
62510;BME280;48558;48.242;11.654;2022-10-16T13:58:43;96548.69;;;25.62;46.81
62510;BME280;48558;48.242;11.654;2022-10-16T14:03:02;96546.72;;;25.21;49.47
62510;BME280;48558;48.242;11.654;2022-10-16T14:07:22;96543.84;;;24.93;49.06
62510;BME280;48558;48.242;11.654;2022-10-16T14:11:45;96548.47;;;24.83;51.28
62510;BME280;48558;48.242;11.654;2022-10-16T14:16:06;96552.00;;;24.63;53.01
62510;BME280;48558;48.242;11.654;2022-10-16T14:20:27;96546.09;;;24.53;51.51
62510;BME280;48558;48.242;11.654;2022-10-16T14:24:40;96544.56;;;24.32;53.48
62510;BME280;48558;48.242;11.654;2022-10-16T14:29:10;96548.09;;;24.11;59.71
62510;BME280;48558;48.242;11.654;2022-10-16T14:33:31;96542.81;;;23.95;53.13
62510;BME280;48558;48.242;11.654;2022-10-16T14:37:45;96543.72;;;23.77;55.38
62510;BME280;48558;48.242;11.654;2022-10-16T14:41:58;96542.41;;;23.78;54.58
62510;BME280;48558;48.242;11.654;2022-10-16T14:46:17;96542.09;;;23.29;61.12
62510;BME280;48558;48.242;11.654;2022-10-16T14:50:31;96544.91;;;23.16;59.71
62510;BME280;48558;48.242;11.654;2022-10-16T14:54:48;96559.59;;;22.96;65.33
62510;BME280;48558;48.242;11.654;2022-10-16T14:59:00;96555.97;;;22.69;64.99
62510;BME280;48558;48.242;11.654;2022-10-16T15:03:15;96558.06;;;22.50;67.32
62510;BME280;48558;48.242;11.654;2022-10-16T15:07:27;96543.25;;;22.31;71.00
62510;BME280;48558;48.242;11.654;2022-10-16T15:11:41;96556.13;;;22.26;67.57
62510;BME280;48558;48.242;11.654;2022-10-16T15:15:54;96566.66;;;21.88;74.50
62510;BME280;48558;48.242;11.654;2022-10-16T15:20:06;96567.06;;;21.74;74.36
62510;BME280;48558;48.242;11.654;2022-10-16T15:24:23;96572.97;;;21.52;77.29
62510;BME280;48558;48.242;11.654;2022-10-16T15:28:36;96574.38;;;21.39;80.82
62510;BME280;48558;48.242;11.654;2022-10-16T15:32:48;96567.81;;;21.31;82.25
62510;BME280;48558;48.242;11.654;2022-10-16T15:37:03;96565.03;;;21.07;81.85
62510;BME280;48558;48.242;11.654;2022-10-16T15:41:15;96575.63;;;20.90;87.79
62510;BME280;48558;48.242;11.654;2022-10-16T15:45:28;96560.22;;;20.72;90.63
62510;BME280;48558;48.242;11.654;2022-10-16T15:49:40;96567.81;;;20.48;90.87
62510;BME280;48558;48.242;11.654;2022-10-16T15:53:52;96568.00;;;20.26;98.41
62510;BME280;48558;48.242;11.654;2022-10-16T15:58:05;96567.59;;;19.99;100.00
62510;BME280;48558;48.242;11.654;2022-10-16T16:02:20;96576.94;;;19.72;100.00
62510;BME280;48558;48.242;11.654;2022-10-16T16:06:32;96574.25;;;19.39;100.00
62510;BME280;48558;48.242;11.654;2022-10-16T16:10:45;96587.06;;;19.12;100.00
62510;BME280;48558;48.242;11.654;2022-10-16T16:14:57;96581.25;;;18.83;100.00
62510;BME280;48558;48.242;11.654;2022-10-16T16:19:15;96586.84;;;18.72;100.00
62510;BME280;48558;48.242;11.654;2022-10-16T16:23:38;96577.41;;;18.41;100.00
62510;BME280;48558;48.242;11.654;2022-10-16T16:27:50;96597.22;;;18.16;100.00
62510;BME280;48558;48.242;11.654;2022-10-16T16:32:03;96596.94;;;18.03;100.00
62510;BME280;48558;48.242;11.654;2022-10-16T16:36:15;96593.78;;;17.67;100.00
62510;BME280;48558;48.242;11.654;2022-10-16T16:40:37;96602.53;;;17.38;100.00
62510;BME280;48558;48.242;11.654;2022-10-16T16:44:50;96608.00;;;17.21;100.00
62510;BME280;48558;48.242;11.654;2022-10-16T16:49:03;96613.50;;;17.05;100.00
62510;BME280;48558;48.242;11.654;2022-10-16T16:53:15;96616.91;;;16.83;100.00
62510;BME280;48558;48.242;11.654;2022-10-16T16:57:28;96621.91;;;16.74;100.00
62510;BME280;48558;48.242;11.654;2022-10-16T17:01:41;96632.22;;;16.62;100.00
62510;BME280;48558;48.242;11.654;2022-10-16T17:06:04;96632.56;;;16.44;100.00
62510;BME280;48558;48.242;11.654;2022-10-16T17:10:18;96645.66;;;16.38;100.00
62510;BME280;48558;48.242;11.654;2022-10-16T17:14:30;96638.66;;;16.22;100.00
62510;BME280;48558;48.242;11.654;2022-10-16T17:18:42;96646.16;;;16.11;100.00
62510;BME280;48558;48.242;11.654;2022-10-16T17:22:55;96641.16;;;15.95;100.00
62510;BME280;48558;48.242;11.654;2022-10-16T17:27:08;96650.25;;;15.90;100.00
62510;BME280;48558;48.242;11.654;2022-10-16T17:31:27;96648.34;;;15.81;100.00
62510;BME280;48558;48.242;11.654;2022-10-16T17:35:44;96650.31;;;15.75;100.00
62510;BME280;48558;48.242;11.654;2022-10-16T17:39:57;96666.25;;;15.74;100.00
62510;BME280;48558;48.242;11.654;2022-10-16T17:44:10;96671.28;;;15.70;100.00
62510;BME280;48558;48.242;11.654;2022-10-16T17:48:30;96674.97;;;15.62;100.00
62510;BME280;48558;48.242;11.654;2022-10-16T17:52:43;96677.41;;;15.54;100.00
62510;BME280;48558;48.242;11.654;2022-10-16T17:56:55;96687.16;;;15.44;100.00
62510;BME280;48558;48.242;11.654;2022-10-16T18:01:20;96696.66;;;15.38;100.00
62510;BME280;48558;48.242;11.654;2022-10-16T18:05:37;96700.59;;;15.31;100.00
62510;BME280;48558;48.242;11.654;2022-10-16T18:09:49;96699.38;;;15.18;100.00
62510;BME280;48558;48.242;11.654;2022-10-16T18:14:23;96706.59;;;15.09;100.00
62510;BME280;48558;48.242;11.654;2022-10-16T18:18:40;96711.88;;;15.07;100.00
62510;BME280;48558;48.242;11.654;2022-10-16T18:23:35;96714.84;;;15.04;100.00
62510;BME280;48558;48.242;11.654;2022-10-16T18:28:27;96710.66;;;14.94;100.00
62510;BME280;48558;48.242;11.654;2022-10-16T18:32:39;96717.19;;;14.76;100.00
62510;BME280;48558;48.242;11.654;2022-10-16T18:36:52;96717.00;;;14.65;100.00
62510;BME280;48558;48.242;11.654;2022-10-16T18:41:06;96721.59;;;14.54;100.00
62510;BME280;48558;48.242;11.654;2022-10-16T18:45:19;96726.19;;;14.42;100.00
62510;BME280;48558;48.242;11.654;2022-10-16T18:49:31;96726.00;;;14.31;100.00
62510;BME280;48558;48.242;11.654;2022-10-16T18:53:46;96734.47;;;14.27;100.00
62510;BME280;48558;48.242;11.654;2022-10-16T18:57:59;96730.91;;;14.12;100.00
62510;BME280;48558;48.242;11.654;2022-10-16T19:02:11;96727.41;;;14.03;100.00
62510;BME280;48558;48.242;11.654;2022-10-16T19:06:24;96732.28;;;13.93;100.00
62510;BME280;48558;48.242;11.654;2022-10-16T19:10:38;96741.97;;;13.98;100.00
62510;BME280;48558;48.242;11.654;2022-10-16T19:14:50;96737.31;;;13.80;100.00
62510;BME280;48558;48.242;11.654;2022-10-16T19:19:05;96760.50;;;13.77;100.00
62510;BME280;48558;48.242;11.654;2022-10-16T19:23:18;96749.13;;;13.66;100.00
62510;BME280;48558;48.242;11.654;2022-10-16T19:27:30;96753.31;;;13.61;100.00
62510;BME280;48558;48.242;11.654;2022-10-16T19:31:42;96755.69;;;13.54;100.00
62510;BME280;48558;48.242;11.654;2022-10-16T19:36:06;96770.41;;;13.45;100.00
62510;BME280;48558;48.242;11.654;2022-10-16T19:40:19;96770.88;;;13.35;100.00
62510;BME280;48558;48.242;11.654;2022-10-16T19:44:31;96750.03;;;13.16;100.00
62510;BME280;48558;48.242;11.654;2022-10-16T19:48:44;96779.88;;;13.21;100.00
62510;BME280;48558;48.242;11.654;2022-10-16T19:52:57;96778.69;;;13.13;100.00
62510;BME280;48558;48.242;11.654;2022-10-16T19:57:09;96781.94;;;13.11;100.00
62510;BME280;48558;48.242;11.654;2022-10-16T20:01:23;96793.50;;;13.10;100.00
62510;BME280;48558;48.242;11.654;2022-10-16T20:05:35;96803.84;;;13.00;100.00
62510;BME280;48558;48.242;11.654;2022-10-16T20:09:48;96804.16;;;12.93;100.00
62510;BME280;48558;48.242;11.654;2022-10-16T20:14:02;96799.53;;;12.90;100.00
62510;BME280;48558;48.242;11.654;2022-10-16T20:18:15;96805.25;;;12.86;100.00
62510;BME280;48558;48.242;11.654;2022-10-16T20:22:28;96808.03;;;12.86;100.00
62510;BME280;48558;48.242;11.654;2022-10-16T20:26:40;96807.09;;;12.80;100.00
62510;BME280;48558;48.242;11.654;2022-10-16T20:30:52;96812.97;;;12.73;100.00
62510;BME280;48558;48.242;11.654;2022-10-16T20:35:05;96814.81;;;12.67;100.00
62510;BME280;48558;48.242;11.654;2022-10-16T20:39:18;96820.06;;;12.56;100.00
62510;BME280;48558;48.242;11.654;2022-10-16T20:43:30;96828.22;;;12.51;100.00
62510;BME280;48558;48.242;11.654;2022-10-16T20:47:43;96824.25;;;12.43;100.00
62510;BME280;48558;48.242;11.654;2022-10-16T20:51:55;96826.84;;;12.37;100.00
62510;BME280;48558;48.242;11.654;2022-10-16T20:56:07;96830.69;;;12.31;100.00
62510;BME280;48558;48.242;11.654;2022-10-16T21:00:22;96824.69;;;12.23;100.00
62510;BME280;48558;48.242;11.654;2022-10-16T21:04:41;96835.47;;;12.21;100.00
62510;BME280;48558;48.242;11.654;2022-10-16T21:08:53;96831.44;;;12.13;100.00
62510;BME280;48558;48.242;11.654;2022-10-16T21:13:06;96833.59;;;12.09;100.00
62510;BME280;48558;48.242;11.654;2022-10-16T21:17:18;96834.53;;;12.06;100.00
62510;BME280;48558;48.242;11.654;2022-10-16T21:21:35;96834.81;;;12.08;100.00
62510;BME280;48558;48.242;11.654;2022-10-16T21:25:49;96836.50;;;12.05;100.00
62510;BME280;48558;48.242;11.654;2022-10-16T21:30:02;96832.34;;;12.01;100.00
62510;BME280;48558;48.242;11.654;2022-10-16T21:34:14;96834.66;;;11.93;100.00
62510;BME280;48558;48.242;11.654;2022-10-16T21:38:27;96834.16;;;11.86;100.00
62510;BME280;48558;48.242;11.654;2022-10-16T21:42:39;96849.38;;;11.81;100.00
62510;BME280;48558;48.242;11.654;2022-10-16T21:46:51;96838.28;;;11.72;100.00
62510;BME280;48558;48.242;11.654;2022-10-16T21:51:04;96841.69;;;11.76;100.00
62510;BME280;48558;48.242;11.654;2022-10-16T21:55:17;96840.00;;;11.79;100.00
62510;BME280;48558;48.242;11.654;2022-10-16T21:59:29;96830.44;;;11.71;100.00
62510;BME280;48558;48.242;11.654;2022-10-16T22:03:44;96826.31;;;11.75;100.00
62510;BME280;48558;48.242;11.654;2022-10-16T22:07:56;96825.22;;;11.73;100.00
62510;BME280;48558;48.242;11.654;2022-10-16T22:12:08;96817.38;;;11.71;100.00
62510;BME280;48558;48.242;11.654;2022-10-16T22:16:25;96820.09;;;11.62;100.00
62510;BME280;48558;48.242;11.654;2022-10-16T22:20:43;96827.31;;;11.60;100.00
62510;BME280;48558;48.242;11.654;2022-10-16T22:24:56;96833.88;;;11.44;100.00
62510;BME280;48558;48.242;11.654;2022-10-16T22:29:14;96833.69;;;11.38;100.00
62510;BME280;48558;48.242;11.654;2022-10-16T22:33:27;96837.97;;;11.30;100.00
62510;BME280;48558;48.242;11.654;2022-10-16T22:37:39;96841.31;;;11.25;100.00
62510;BME280;48558;48.242;11.654;2022-10-16T22:41:52;96834.22;;;11.24;100.00
62510;BME280;48558;48.242;11.654;2022-10-16T22:46:07;96832.38;;;11.21;100.00
62510;BME280;48558;48.242;11.654;2022-10-16T22:50:20;96837.72;;;11.16;100.00
62510;BME280;48558;48.242;11.654;2022-10-16T22:54:32;96836.00;;;11.09;100.00
62510;BME280;48558;48.242;11.654;2022-10-16T22:58:44;96845.34;;;11.03;100.00
62510;BME280;48558;48.242;11.654;2022-10-16T23:02:58;96842.38;;;10.97;100.00
62510;BME280;48558;48.242;11.654;2022-10-16T23:07:10;96835.91;;;10.91;100.00
62510;BME280;48558;48.242;11.654;2022-10-16T23:11:23;96852.03;;;10.93;100.00
62510;BME280;48558;48.242;11.654;2022-10-16T23:15:39;96852.19;;;10.89;100.00
62510;BME280;48558;48.242;11.654;2022-10-16T23:19:52;96851.22;;;10.83;100.00
62510;BME280;48558;48.242;11.654;2022-10-16T23:24:04;96855.06;;;10.86;100.00
62510;BME280;48558;48.242;11.654;2022-10-16T23:28:17;96850.75;;;10.85;100.00
62510;BME280;48558;48.242;11.654;2022-10-16T23:32:29;96843.94;;;10.76;100.00
62510;BME280;48558;48.242;11.654;2022-10-16T23:36:41;96852.06;;;10.71;100.00